Aeroporto :
LOGIN :

Iscrizione | Disclaimer

   EN    FR    IT 

 










Sommario :    VFR   VFR Marginale   IFR   IFR Intensivo   IFR Molto Intensivo
Visibilità : 
Base nubi : 
>= 8 km
>= 3000ft
5 / 8 km
1000 / 3000 ft
1500m / 5 km
500 / 1000 ft
800 / 1500m
200 / 500 ft
< 800m
< 200 ft
Simboli :   Temporali  Nebbia  Neve Forte  Precipitazioni Forti  Vento > 20 kt
SIGMETs :   Varie  Temporali  Ghiacco  Turbolenza  Onda orograficha  Ceneri Vulcaniche






- Altitudine del aeroporto : 915 ft
- Codice IATA : LUG


LSZA - Lugano

ULTIMO METAR :
  • 231550Z 19005KT 140V210 9999 FEW040 BKN120 22/15 Q1009 NOSIG

METARs OBSOLETI :
  • 231520Z 20005KT 160V230 9999 SCT040 23/15 Q1009 NOSIG
  • 231450Z 19006KT 150V230 9999 SCT040 23/16 Q1009 NOSIG
  • 231420Z 19006KT 9999 SCT035 24/15 Q1009 NOSIG
  • 231350Z 19006KT 9999 SCT035 24/14 Q1009 NOSIG
  • 231320Z 19005KT 160V220 9999 SCT040 24/15 Q1009 NOSIG

TAF TAF LSZA
Valido dal 23 a 15 ore il 24 a 00 ore UTC


231425Z 2315/2324 19005KT 9999 SCT040
PROB30
TEMPO 2318/2324 SCT030TCU
ATIS : +41 22 417 40 88



MetMap, La meteo Aeronautica in un colpo d'occhio ! - Copyright ORBIFLY Dicembre 2007 - Disclaimer

ORBIFLY MET'MAP TEAM :

Programmazione e sviluppo : Alexandra Zaïnal
Concezione : Baudouin d'Aumeries
Aiuto per la programmazione : Marc-Olivier Méhu
Supporto tecnico e logistico : Manuel Goepfert
Aiuto per la traduzione : Arnaldo La Scala

Contatto : metmap@orbifly.com




FONTI E CREDITI :

   NOAA